createdAt,value
2022-11-03T00:01:52.453Z,100764.00
2022-11-03T00:04:21.373Z,100762.03
2022-11-03T00:06:53.163Z,100773.06
2022-11-03T00:09:20.749Z,100764.28
2022-11-03T00:11:50.769Z,100760.56
2022-11-03T00:14:17.896Z,100766.72
2022-11-03T00:16:45.120Z,100773.50
2022-11-03T00:19:13.753Z,100773.09
2022-11-03T00:21:40.618Z,100773.72
2022-11-03T00:24:07.802Z,100759.25
2022-11-03T00:26:36.029Z,100765.09
2022-11-03T00:29:11.418Z,100764.84
2022-11-03T00:31:40.216Z,100759.31
2022-11-03T00:34:07.394Z,100754.78
2022-11-03T00:36:36.050Z,100760.16
2022-11-03T00:39:03.884Z,100760.16
2022-11-03T00:41:30.578Z,100757.59
2022-11-03T00:43:57.556Z,100752.22
2022-11-03T00:46:25.656Z,100751.09
2022-11-03T00:48:52.786Z,100749.66
2022-11-03T00:51:33.543Z,100744.66
2022-11-03T00:54:01.819Z,100736.03
2022-11-03T00:56:30.995Z,100739.97
2022-11-03T00:58:59.316Z,100736.56
2022-11-03T01:01:37.044Z,100734.84
2022-11-03T01:04:24.850Z,100739.25
2022-11-03T01:06:54.670Z,100730.44
2022-11-03T01:09:30.037Z,100738.50
2022-11-03T01:12:07.135Z,100734.84
2022-11-03T01:14:35.317Z,100730.44
2022-11-03T01:17:04.953Z,100728.88
2022-11-03T01:19:31.670Z,100722.63
2022-11-03T01:21:58.331Z,100722.88
2022-11-03T01:24:24.929Z,100719.22
2022-11-03T01:26:51.623Z,100715.56
2022-11-03T01:29:18.830Z,100708.47
2022-11-03T01:31:45.696Z,100701.63
2022-11-03T01:34:16.870Z,100710.72
2022-11-03T01:36:44.033Z,100696.53
2022-11-03T01:39:15.278Z,100697.38
2022-11-03T01:41:43.851Z,100692.84
2022-11-03T01:44:10.422Z,100693.38
2022-11-03T01:46:46.862Z,100692.94
2022-11-03T01:49:19.640Z,100689.97
2022-11-03T01:51:52.809Z,100683.16
2022-11-03T01:54:23.776Z,100687.13
2022-11-03T01:56:51.942Z,100700.09
2022-11-03T01:59:22.684Z,100696.44
2022-11-03T02:01:49.794Z,100703.25
2022-11-03T02:04:43.189Z,100703.25
2022-11-03T02:07:31.183Z,100715.72
2022-11-03T02:09:57.943Z,100718.25
2022-11-03T02:12:24.736Z,100724.53
2022-11-03T02:15:00.355Z,100717.44
2022-11-03T02:17:30.643Z,100717.44
2022-11-03T02:20:11.188Z,100710.59
2022-11-03T02:22:49.456Z,100709.88
2022-11-03T02:25:31.075Z,100704.59
2022-11-03T02:27:58.529Z,100705.97
2022-11-03T02:30:29.315Z,100702.56
2022-11-03T02:33:04.608Z,100699.88
2022-11-03T02:35:46.984Z,100701.59
2022-11-03T02:38:16.930Z,100695.22
2022-11-03T02:40:48.190Z,100699.75
2022-11-03T02:43:17.495Z,100699.63
2022-11-03T02:45:47.643Z,100702.31
2022-11-03T02:48:17.894Z,100707.69
2022-11-03T02:50:44.982Z,100704.16
2022-11-03T02:53:13.363Z,100702.31
2022-11-03T02:55:46.425Z,100704.03
2022-11-03T02:58:16.046Z,100702.03
2022-11-03T03:01:24.397Z,100706.44
2022-11-03T03:03:58.287Z,100709.41
2022-11-03T03:06:31.166Z,100707.94
2022-11-03T03:09:06.709Z,100708.22
2022-11-03T03:11:39.384Z,100710.78
2022-11-03T03:14:16.990Z,100717.75
2022-11-03T03:16:51.162Z,100714.78
2022-11-03T03:19:53.373Z,100714.53
2022-11-03T03:22:28.827Z,100715.25
2022-11-03T03:25:04.082Z,100720.50
2022-11-03T03:27:33.987Z,100720.25
2022-11-03T03:30:05.152Z,100721.84
2022-11-03T03:32:39.032Z,100728.19
2022-11-03T03:35:08.730Z,100722.81
2022-11-03T03:37:43.101Z,100724.53
2022-11-03T03:40:12.584Z,100725.22
2022-11-03T03:42:41.872Z,100720.56
2022-11-03T03:45:11.475Z,100729.63
2022-11-03T03:47:38.221Z,100737.75
2022-11-03T03:50:05.237Z,100724.09
2022-11-03T03:52:34.893Z,100731.59
2022-11-03T03:55:01.745Z,100734.53
2022-11-03T03:57:31.791Z,100729.28
2022-11-03T03:59:58.542Z,100730.53
2022-11-03T04:02:25.263Z,100734.44
2022-11-03T04:04:51.939Z,100730.22
2022-11-03T04:07:42.465Z,100725.34
2022-11-03T04:10:10.388Z,100728.16
2022-11-03T04:12:55.487Z,100735.66
2022-11-03T04:15:40.622Z,100728.69
2022-11-03T04:18:26.465Z,100724.41
2022-11-03T04:21:12.766Z,100716.72
2022-11-03T04:23:39.450Z,100726.78
2022-11-03T04:26:13.074Z,100713.00
2022-11-03T04:28:41.034Z,100715.06
2022-11-03T04:31:12.519Z,100702.63
2022-11-03T04:33:40.164Z,100703.59
2022-11-03T04:36:22.367Z,100695.09
2022-11-03T04:38:50.225Z,100705.84
2022-11-03T04:41:31.810Z,100695.34
2022-11-03T04:43:58.593Z,100699.00
2022-11-03T04:46:27.865Z,100693.63
2022-11-03T04:48:58.494Z,100697.03
2022-11-03T04:51:27.821Z,100700.47
2022-11-03T04:53:58.544Z,100700.22
2022-11-03T04:56:25.827Z,100694.56
2022-11-03T04:58:53.796Z,100697.97
2022-11-03T05:01:24.480Z,100699.69
2022-11-03T05:03:54.385Z,100698.56
2022-11-03T05:06:27.958Z,100693.06
2022-11-03T05:09:20.074Z,100697.47
2022-11-03T05:11:46.726Z,100695.47
2022-11-03T05:14:30.112Z,100695.22
2022-11-03T05:16:57.113Z,100684.22
2022-11-03T05:19:34.217Z,100694.69
2022-11-03T05:22:03.436Z,100697.13
2022-11-03T05:24:31.171Z,100683.69
2022-11-03T05:26:59.081Z,100690.78
2022-11-03T05:29:38.010Z,100697.88
2022-11-03T05:32:12.190Z,100690.53
2022-11-03T05:34:44.551Z,100693.22
2022-11-03T05:37:28.575Z,100693.22
2022-11-03T05:39:58.705Z,100701.28
2022-11-03T05:42:34.264Z,100694.63
2022-11-03T05:45:04.696Z,100695.38
2022-11-03T05:47:39.026Z,100698.06
2022-11-03T05:50:17.308Z,100695.09
2022-11-03T05:52:46.088Z,100696.78
2022-11-03T05:55:24.173Z,100703.63
2022-11-03T05:57:50.961Z,100704.81
2022-11-03T06:00:48.221Z,100707.94
2022-11-03T06:03:21.483Z,100713.91
2022-11-03T06:05:48.097Z,100709.16
2022-11-03T06:10:57.182Z,100714.03
2022-11-03T06:13:38.025Z,100704.69
2022-11-03T06:16:16.754Z,100713.09
2022-11-03T06:18:43.392Z,100711.81
2022-11-03T06:21:16.465Z,100707.00
2022-11-03T06:23:43.332Z,100711.00
2022-11-03T06:26:17.636Z,100716.97
2022-11-03T06:28:45.333Z,100716.44
2022-11-03T06:31:28.230Z,100713.59
2022-11-03T06:33:57.545Z,100716.44
2022-11-03T06:36:27.899Z,100705.94
2022-11-03T06:39:02.054Z,100711.03
2022-11-03T06:41:32.386Z,100722.09
2022-11-03T06:44:02.353Z,100723.53
2022-11-03T06:46:30.980Z,100726.09
2022-11-03T06:49:04.267Z,100723.53
2022-11-03T06:51:35.239Z,100721.53
2022-11-03T06:54:05.933Z,100728.38
2022-11-03T06:56:37.043Z,100729.81
2022-11-03T06:59:03.638Z,100731.25
2022-11-03T07:01:33.615Z,100735.09
2022-11-03T07:04:03.652Z,100726.75
2022-11-03T07:06:34.673Z,100735.53
2022-11-03T07:09:04.925Z,100735.53
2022-11-03T07:11:50.761Z,100731.03
2022-11-03T07:14:21.582Z,100740.09
2022-11-03T07:16:57.871Z,100739.81
2022-11-03T07:19:34.743Z,100733.13
2022-11-03T07:22:04.787Z,100737.25
2022-11-03T07:24:34.775Z,100742.63
2022-11-03T07:27:25.998Z,100735.00
2022-11-03T07:29:58.101Z,100736.44
2022-11-03T07:32:30.257Z,100733.00
2022-11-03T07:35:15.506Z,100733.00
2022-11-03T07:37:42.200Z,100734.69
2022-11-03T07:40:27.957Z,100728.19
2022-11-03T07:43:09.848Z,100717.13
2022-11-03T07:45:41.583Z,100709.75
2022-11-03T07:48:26.037Z,100707.78
2022-11-03T07:50:59.396Z,100706.53
2022-11-03T07:53:33.364Z,100707.22
2022-11-03T07:56:00.083Z,100710.06
2022-11-03T07:58:36.869Z,100709.50
2022-11-03T08:01:22.082Z,100703.00
2022-11-03T08:03:49.102Z,100705.56
2022-11-03T08:06:18.758Z,100701.59
2022-11-03T08:08:46.834Z,100693.81
2022-11-03T08:13:40.951Z,100680.75
2022-11-03T08:16:07.901Z,100671.50
2022-11-03T08:18:34.534Z,100672.06
2022-11-03T08:21:01.113Z,100683.13
2022-11-03T08:23:28.158Z,100676.00
2022-11-03T08:25:55.040Z,100675.44
2022-11-03T08:28:21.755Z,100671.22
2022-11-03T08:30:48.374Z,100662.56
2022-11-03T08:33:15.029Z,100668.38
2022-11-03T08:35:41.734Z,100662.72
2022-11-03T08:38:08.575Z,100653.66
2022-11-03T08:40:35.497Z,100662.13
2022-11-03T08:43:03.140Z,100657.47
2022-11-03T08:45:30.441Z,100660.72
2022-11-03T08:47:57.882Z,100660.72
2022-11-03T08:50:24.703Z,100660.16
2022-11-03T08:52:51.458Z,100663.84
2022-11-03T08:55:18.314Z,100659.31
2022-11-03T08:57:44.947Z,100659.31
2022-11-03T09:00:12.314Z,100659.88
2022-11-03T09:02:39.091Z,100638.91
2022-11-03T09:05:07.771Z,100655.06
2022-11-03T09:10:23.340Z,100650.81
2022-11-03T09:12:54.084Z,100654.31
2022-11-03T09:15:20.818Z,100647.94
2022-11-03T09:17:47.817Z,100659.88
2022-11-03T09:20:14.563Z,100658.03
2022-11-03T09:22:41.169Z,100654.50
2022-11-03T09:25:08.319Z,100647.94
2022-11-03T09:27:34.947Z,100654.13
2022-11-03T09:30:14.792Z,100649.25
2022-11-03T09:32:41.720Z,100646.41
2022-11-03T09:35:09.926Z,100647.53
2022-11-03T09:37:36.957Z,100646.06
2022-11-03T09:40:04.460Z,100633.78
2022-11-03T09:42:34.451Z,100640.00
2022-11-03T09:45:02.067Z,100630.88
2022-11-03T09:47:38.409Z,100635.38
2022-11-03T09:50:06.330Z,100635.44
2022-11-03T09:52:33.504Z,100631.78
2022-11-03T09:55:00.181Z,100634.09
2022-11-03T09:57:27.945Z,100641.69
2022-11-03T09:59:55.152Z,100623.50
2022-11-03T10:02:26.799Z,100621.72
2022-11-03T10:04:54.698Z,100622.28
2022-11-03T10:07:22.059Z,100620.06
2022-11-03T10:09:53.139Z,100626.59
2022-11-03T10:12:23.914Z,100625.13
2022-11-03T10:14:51.529Z,100621.78
2022-11-03T10:17:25.724Z,100611.34
2022-11-03T10:19:55.971Z,100609.69
2022-11-03T10:22:22.936Z,100604.81
2022-11-03T10:25:09.732Z,100602.28
2022-11-03T10:27:36.364Z,100603.94
2022-11-03T10:30:12.896Z,100604.47
2022-11-03T10:32:41.529Z,100602.56
2022-11-03T10:35:34.746Z,100602.78
2022-11-03T10:38:32.253Z,100598.16
2022-11-03T10:41:13.975Z,100609.97
2022-11-03T10:43:42.591Z,100597.84
2022-11-03T10:46:44.696Z,100593.56
2022-11-03T10:49:10.303Z,100584.16
2022-11-03T10:51:37.733Z,100586.59
2022-11-03T10:54:06.203Z,100585.75
2022-11-03T10:56:33.533Z,100581.19
2022-11-03T10:59:00.983Z,100580.28
2022-11-03T11:01:27.831Z,100574.16
2022-11-03T11:03:55.444Z,100574.56
2022-11-03T11:06:27.899Z,100564.09
2022-11-03T11:09:00.577Z,100560.72
2022-11-03T11:11:28.146Z,100558.00
2022-11-03T11:14:28.548Z,100555.69
2022-11-03T11:16:56.762Z,100558.28
2022-11-03T11:19:25.461Z,100556.28
2022-11-03T11:21:54.775Z,100547.38
2022-11-03T11:24:43.042Z,100542.75
2022-11-03T11:27:32.052Z,100539.63
2022-11-03T11:30:00.453Z,100539.91
2022-11-03T11:32:42.061Z,100539.63
2022-11-03T11:35:28.738Z,100536.75
2022-11-03T11:37:55.489Z,100531.47
2022-11-03T11:40:25.008Z,100524.88
2022-11-03T11:43:13.427Z,100523.66
2022-11-03T11:46:17.722Z,100521.34
2022-11-03T11:48:44.465Z,100519.91
2022-11-03T11:51:12.300Z,100517.56
2022-11-03T11:53:44.856Z,100510.69
2022-11-03T11:56:16.444Z,100511.69
2022-11-03T11:58:47.341Z,100499.81
2022-11-03T12:01:28.520Z,100500.03
2022-11-03T12:04:01.646Z,100488.25
2022-11-03T12:06:38.764Z,100489.66
2022-11-03T12:09:23.272Z,100485.94
2022-11-03T12:11:56.313Z,100487.19
2022-11-03T12:14:25.943Z,100486.03
2022-11-03T12:16:53.613Z,100480.63
2022-11-03T12:19:36.629Z,100471.59
2022-11-03T12:22:05.326Z,100471.03
2022-11-03T12:24:32.247Z,100461.72
2022-11-03T12:27:03.208Z,100459.22
2022-11-03T12:29:29.849Z,100451.84
2022-11-03T12:31:56.449Z,100443.03
2022-11-03T12:34:23.051Z,100441.25
2022-11-03T12:36:54.746Z,100438.88
2022-11-03T12:39:22.816Z,100430.50
2022-11-03T12:41:49.404Z,100424.78
2022-11-03T12:44:16.070Z,100427.66
2022-11-03T12:46:42.889Z,100425.47
2022-11-03T12:49:09.587Z,100416.56
2022-11-03T12:51:36.144Z,100420.44
2022-11-03T12:54:02.949Z,100421.03
2022-11-03T12:56:29.556Z,100412.81
2022-11-03T12:58:56.162Z,100410.00
2022-11-03T13:01:22.967Z,100405.31
2022-11-03T13:03:49.771Z,100394.78
2022-11-03T13:06:16.588Z,100390.91
2022-11-03T13:08:44.710Z,100386.81
2022-11-03T13:11:31.829Z,100380.22
2022-11-03T13:13:59.241Z,100375.53
2022-11-03T13:16:25.889Z,100375.38
2022-11-03T13:18:52.611Z,100362.78
2022-11-03T13:21:19.552Z,100363.91
2022-11-03T13:23:46.151Z,100364.13
2022-11-03T13:26:12.759Z,100356.38
2022-11-03T13:28:50.581Z,100360.13
2022-11-03T13:31:17.180Z,100343.50
2022-11-03T13:33:43.773Z,100340.50
2022-11-03T13:36:10.555Z,100343.50
2022-11-03T13:38:37.220Z,100334.25
2022-11-03T13:41:08.489Z,100336.81
2022-11-03T13:43:35.602Z,100334.66
2022-11-03T13:46:03.975Z,100324.22
2022-11-03T13:49:33.165Z,100320.41
2022-11-03T13:51:18.968Z,100323.88
2022-11-03T13:59:26.609Z,100320.91
2022-11-03T14:07:07.606Z,100324.38
2022-11-03T14:12:25.432Z,100316.78
2022-11-03T14:14:51.990Z,100304.25
2022-11-03T14:17:18.616Z,100308.34
2022-11-03T14:19:51.752Z,100307.28
2022-11-03T14:22:20.090Z,100298.03
2022-11-03T14:24:46.738Z,100300.97
2022-11-03T14:27:13.593Z,100295.25
2022-11-03T14:29:40.253Z,100286.66
2022-11-03T14:32:06.978Z,100280.34
2022-11-03T14:34:33.681Z,100282.03
2022-11-03T14:37:00.940Z,100282.19
2022-11-03T14:39:28.158Z,100275.13
2022-11-03T14:42:03.511Z,100271.56
2022-11-03T14:44:35.789Z,100267.94
2022-11-03T14:47:03.677Z,100261.28
2022-11-03T14:49:31.750Z,100266.88
2022-11-03T14:51:59.770Z,100266.56
2022-11-03T14:54:26.739Z,100254.78
2022-11-03T14:56:53.909Z,100260.09
2022-11-03T14:59:21.169Z,100252.50
2022-11-03T15:01:49.221Z,100254.72
2022-11-03T15:04:15.909Z,100239.59
2022-11-03T15:06:43.173Z,100232.34
2022-11-03T15:11:42.363Z,100230.13
2022-11-03T15:14:09.289Z,100225.34
2022-11-03T15:16:38.908Z,100212.56
2022-11-03T15:19:06.524Z,100211.34
2022-11-03T15:21:33.693Z,100214.34
2022-11-03T15:26:48.070Z,100200.38
2022-11-03T15:29:14.764Z,100197.25
2022-11-03T15:31:47.260Z,100198.53
2022-11-03T15:34:14.410Z,100194.38
2022-11-03T15:36:41.051Z,100188.63
2022-11-03T15:39:07.765Z,100190.25
2022-11-03T15:41:34.332Z,100192.91
2022-11-03T15:44:00.979Z,100193.53
2022-11-03T15:46:27.575Z,100195.84
2022-11-03T15:48:56.556Z,100185.69
2022-11-03T15:51:23.577Z,100188.00
2022-11-03T15:53:56.694Z,100196.38
2022-11-03T15:56:25.802Z,100190.59
2022-11-03T15:58:52.329Z,100192.91
2022-11-03T16:01:19.078Z,100194.38
2022-11-03T16:03:45.815Z,100199.22
2022-11-03T16:06:13.090Z,100190.78
2022-11-03T16:08:39.764Z,100183.97
2022-11-03T16:11:06.389Z,100176.19
2022-11-03T16:13:33.098Z,100181.22
2022-11-03T16:15:59.693Z,100193.13
2022-11-03T16:18:26.307Z,100180.13
2022-11-03T16:20:52.927Z,100177.72
2022-11-03T16:23:19.505Z,100188.13
2022-11-03T16:25:46.080Z,100187.59
2022-11-03T16:28:12.843Z,100189.56
2022-11-03T16:30:39.669Z,100182.81
2022-11-03T16:33:07.514Z,100179.56
2022-11-03T16:35:34.233Z,100187.25
2022-11-03T16:38:01.100Z,100186.56
2022-11-03T16:40:28.104Z,100184.84
2022-11-03T16:42:55.182Z,100181.47
2022-11-03T16:45:24.018Z,100162.94
2022-11-03T16:47:51.051Z,100171.31
2022-11-03T16:50:18.988Z,100165.91
2022-11-03T16:52:47.261Z,100171.59
2022-11-03T16:55:16.994Z,100160.84
2022-11-03T16:57:43.810Z,100166.22
2022-11-03T17:00:18.695Z,100151.06
2022-11-03T17:02:47.099Z,100149.91
2022-11-03T17:05:15.679Z,100148.34
2022-11-03T17:07:42.290Z,100150.38
2022-11-03T17:10:09.364Z,100154.91
2022-11-03T17:12:35.965Z,100148.66
2022-11-03T17:15:02.875Z,100144.13
2022-11-03T17:17:29.613Z,100137.88
2022-11-03T17:19:56.525Z,100141.91
2022-11-03T17:22:23.327Z,100152.66
2022-11-03T17:24:50.443Z,100138.50
2022-11-03T17:27:22.891Z,100134.13
2022-11-03T17:29:57.014Z,100134.28
2022-11-03T17:32:35.444Z,100137.13
2022-11-03T17:35:02.422Z,100130.03
2022-11-03T17:37:29.332Z,100128.00
2022-11-03T17:39:56.818Z,100128.88
2022-11-03T17:42:25.402Z,100127.03
2022-11-03T17:44:55.492Z,100115.88
2022-11-03T17:47:23.782Z,100112.47
2022-11-03T17:49:50.621Z,100116.16
2022-11-03T17:52:27.965Z,100122.53
2022-11-03T17:54:58.199Z,100118.16
2022-11-03T17:57:26.549Z,100107.69
2022-11-03T17:59:56.026Z,100097.22
2022-11-03T18:02:25.373Z,100097.22
2022-11-03T18:05:16.876Z,100097.34
2022-11-03T18:07:47.167Z,100098.53
2022-11-03T18:10:14.586Z,100097.81
2022-11-03T18:13:03.181Z,100095.25
2022-11-03T18:15:32.234Z,100101.81
2022-11-03T18:17:59.097Z,100105.50
2022-11-03T18:20:29.239Z,100097.88
2022-11-03T18:23:19.943Z,100090.25
2022-11-03T18:25:47.818Z,100099.63
2022-11-03T18:28:15.516Z,100094.13
2022-11-03T18:30:44.445Z,100086.63
2022-11-03T18:33:17.591Z,100081.81
2022-11-03T18:35:44.755Z,100075.34
2022-11-03T18:38:13.575Z,100081.03
2022-11-03T18:40:41.449Z,100075.94
2022-11-03T18:43:19.927Z,100078.94
2022-11-03T18:45:46.892Z,100065.78
2022-11-03T18:48:19.479Z,100067.75
2022-11-03T18:50:51.259Z,100053.91
2022-11-03T18:53:20.672Z,100054.19
2022-11-03T18:55:48.647Z,100053.50
2022-11-03T18:58:18.047Z,100048.28
2022-11-03T19:00:45.009Z,100040.63
2022-11-03T19:03:22.590Z,100033.56
2022-11-03T19:05:51.750Z,100017.72
2022-11-03T19:08:30.800Z,100016.06
2022-11-03T19:11:03.684Z,100007.25
2022-11-03T19:13:35.732Z,100007.25
2022-11-03T19:16:09.850Z,100006.44
2022-11-03T19:18:36.448Z,100002.19
2022-11-03T19:21:03.143Z,99995.41
2022-11-03T19:23:29.727Z,99988.63
2022-11-03T19:26:00.519Z,99987.38
2022-11-03T19:28:29.967Z,99984.13
2022-11-03T19:30:58.185Z,99982.44
2022-11-03T19:33:27.270Z,99988.09
2022-11-03T19:35:54.134Z,99987.41
2022-11-03T19:38:21.440Z,99981.34
2022-11-03T19:41:06.619Z,99988.38
2022-11-03T19:43:35.005Z,99984.19
2022-11-03T19:46:02.202Z,99972.56
2022-11-03T19:48:33.356Z,99980.63
2022-11-03T19:51:00.254Z,99983.31
2022-11-03T19:53:29.383Z,99986.84
2022-11-03T19:55:56.870Z,99983.63
2022-11-03T19:58:29.145Z,99987.28
2022-11-03T20:00:56.909Z,99980.22
2022-11-03T20:03:24.463Z,99970.47
2022-11-03T20:05:56.678Z,99966.09
2022-11-03T20:08:29.000Z,99969.75
2022-11-03T20:10:56.148Z,99959.88
2022-11-03T20:13:26.255Z,99966.94
2022-11-03T20:15:59.089Z,99966.78
2022-11-03T20:18:27.441Z,99960.72
2022-11-03T20:20:54.542Z,99958.72
2022-11-03T20:23:30.382Z,99959.75
2022-11-03T20:25:57.379Z,99963.41
2022-11-03T20:28:27.654Z,99951.97
2022-11-03T20:30:54.955Z,99951.97
2022-11-03T20:33:23.569Z,99941.22
2022-11-03T20:35:52.318Z,99937.53
2022-11-03T20:38:20.542Z,99939.22
2022-11-03T20:40:50.177Z,99936.09
2022-11-03T20:43:26.626Z,99932.97
2022-11-03T20:45:54.738Z,99934.34
2022-11-03T20:48:22.099Z,99928.41
2022-11-03T20:50:48.976Z,99926.97
2022-11-03T20:53:18.945Z,99916.47
2022-11-03T20:55:46.193Z,99908.81
2022-11-03T20:58:16.237Z,99897.47
2022-11-03T21:00:44.769Z,99895.69
2022-11-03T21:03:31.466Z,99893.44
2022-11-03T21:06:04.237Z,99887.56
2022-11-03T21:08:30.908Z,99886.28
2022-11-03T21:11:17.549Z,99874.09
2022-11-03T21:13:44.444Z,99876.31
2022-11-03T21:16:29.792Z,99875.16
2022-11-03T21:19:15.049Z,99872.00
2022-11-03T21:21:41.824Z,99864.94
2022-11-03T21:24:12.802Z,99870.03
2022-11-03T21:26:41.236Z,99866.31
2022-11-03T21:29:08.163Z,99852.19
2022-11-03T21:31:34.780Z,99853.88
2022-11-03T21:34:01.422Z,99850.44
2022-11-03T21:36:28.047Z,99838.81
2022-11-03T21:38:54.738Z,99837.84
2022-11-03T21:41:39.765Z,99825.38
2022-11-03T21:44:16.439Z,99822.84
2022-11-03T21:46:44.130Z,99826.41
2022-11-03T21:49:29.576Z,99814.63
2022-11-03T21:51:56.305Z,99809.94
2022-11-03T21:54:23.038Z,99805.91
2022-11-03T21:56:49.784Z,99802.25
2022-11-03T21:59:16.506Z,99799.09
2022-11-03T22:01:43.402Z,99805.00
2022-11-03T22:04:10.139Z,99789.38
2022-11-03T22:06:39.830Z,99786.19
2022-11-03T22:09:06.555Z,99780.81
2022-11-03T22:11:33.186Z,99778.84
2022-11-03T22:14:01.367Z,99774.81
2022-11-03T22:16:37.922Z,99778.84
2022-11-03T22:19:35.072Z,99769.75
2022-11-03T22:22:23.222Z,99775.50
2022-11-03T22:25:08.553Z,99769.97
2022-11-03T22:27:35.433Z,99765.09
2022-11-03T22:30:20.453Z,99762.78
2022-11-03T22:32:52.427Z,99755.91
2022-11-03T22:35:37.437Z,99753.06
2022-11-03T22:38:07.175Z,99757.50
2022-11-03T22:40:53.623Z,99755.16
2022-11-03T22:43:40.777Z,99753.47
2022-11-03T22:46:08.425Z,99750.09
2022-11-03T22:48:35.226Z,99748.09
2022-11-03T22:51:05.482Z,99746.06
2022-11-03T22:53:53.010Z,99742.72
2022-11-03T22:56:20.655Z,99730.25
2022-11-03T22:58:47.700Z,99735.31
2022-11-03T23:01:16.908Z,99729.59
2022-11-03T23:03:45.451Z,99736.34
2022-11-03T23:06:15.290Z,99731.97
2022-11-03T23:08:43.458Z,99727.25
2022-11-03T23:11:16.243Z,99729.28
2022-11-03T23:13:48.490Z,99727.56
2022-11-03T23:16:18.220Z,99731.09
2022-11-03T23:19:04.400Z,99718.16
2022-11-03T23:21:32.436Z,99721.16
2022-11-03T23:24:18.024Z,99711.22
2022-11-03T23:26:44.916Z,99713.75
2022-11-03T23:29:13.606Z,99699.63
2022-11-03T23:31:41.682Z,99700.47
2022-11-03T23:34:09.949Z,99697.59
2022-11-03T23:36:37.102Z,99694.25
2022-11-03T23:39:04.556Z,99701.28
2022-11-03T23:41:31.212Z,99693.91
2022-11-03T23:43:57.995Z,99695.59
2022-11-03T23:46:47.614Z,99692.88
2022-11-03T23:49:14.893Z,99704.69
2022-11-03T23:51:44.506Z,99694.91
2022-11-03T23:54:12.323Z,99695.91
2022-11-03T23:57:00.027Z,99698.59
2022-11-03T23:59:27.989Z,99691.91
